Time;durP1;ratioP1;P1;durP2;ratioP2;P2;SDS_P1;SDS_P2;PMS_P1;PMS_P2;Temp;Humidity;BMP_temperature;BMP_pressure;BME280_temperature;BME280_humidity;BME280_pressure;Samples;Min_cycle;Max_cycle;Signal;HPM_P1;HPM_P2
2023/04/02 00:02:32;;;;;;;8.05;5.90;;;20.90;70.70;;;;;;6192659;28;89419;-67
2023/04/02 00:05:54;;;;;;;10.30;6.15;;;20.90;70.90;;;;;;6188809;28;88987;-68
2023/04/02 00:09:00;;;;;;;7.25;6.28;;;20.90;70.80;;;;;;6197361;28;89075;-68
2023/04/02 00:12:18;;;;;;;8.40;5.95;;;20.90;70.90;;;;;;6192289;28;88404;-68
2023/04/02 00:15:21;;;;;;;7.07;6.10;;;20.90;70.90;;;;;;6193002;28;89144;-67
2023/04/02 00:18:25;;;;;;;8.52;6.10;;;20.90;70.90;;;;;;6202706;28;87915;-68
2023/04/02 00:21:30;;;;;;;6.57;5.57;;;20.90;70.90;;;;;;6199395;28;90190;-68
2023/04/02 00:24:33;;;;;;;7.43;5.93;;;20.90;70.80;;;;;;6204444;28;89439;-68
2023/04/02 00:27:36;;;;;;;8.52;6.07;;;20.90;70.80;;;;;;6199141;28;88455;-68
2023/04/02 00:30:47;;;;;;;6.93;5.57;;;20.90;70.80;;;;;;6195607;28;88458;-67
2023/04/02 00:33:49;;;;;;;6.72;5.35;;;20.90;70.80;;;;;;6203364;28;89119;-68
2023/04/02 00:36:53;;;;;;;6.60;5.93;;;20.90;70.70;;;;;;6204703;28;89015;-67
2023/04/02 00:40:01;;;;;;;6.35;5.72;;;20.90;70.70;;;;;;6195421;28;89215;-68
2023/04/02 00:43:06;;;;;;;6.80;5.75;;;20.90;70.70;;;;;;6191439;28;87233;-68
2023/04/02 00:46:15;;;;;;;6.20;5.28;;;20.90;70.80;;;;;;6202897;28;89160;-68
2023/04/02 00:49:24;;;;;;;6.75;5.85;;;20.90;70.80;;;;;;6191960;28;89100;-68
2023/04/02 00:52:30;;;;;;;9.15;5.55;;;20.80;70.70;;;;;;6185471;28;89976;-68
2023/04/02 00:55:37;;;;;;;7.07;5.20;;;20.90;70.80;;;;;;6190596;28;89570;-67
2023/04/02 00:58:40;;;;;;;6.85;5.47;;;20.90;70.80;;;;;;6196339;28;88002;-68
2023/04/02 01:01:44;;;;;;;6.43;5.10;;;20.80;70.90;;;;;;6204402;28;89020;-68
2023/04/02 01:04:53;;;;;;;6.47;5.28;;;20.90;70.90;;;;;;6205434;28;90268;-68
2023/04/02 01:08:06;;;;;;;5.88;5.10;;;20.80;70.70;;;;;;6203259;28;89184;-68
2023/04/02 01:11:20;;;;;;;7.20;5.13;;;20.90;70.90;;;;;;6206247;28;89075;-68
2023/04/02 01:14:37;;;;;;;7.75;5.43;;;20.80;70.80;;;;;;6185090;28;88364;-68
2023/04/02 01:18:00;;;;;;;7.45;5.60;;;20.80;70.90;;;;;;6198833;28;88904;-68
2023/04/02 01:21:29;;;;;;;8.40;5.65;;;20.80;70.80;;;;;;6199989;28;89054;-67
2023/04/02 01:24:33;;;;;;;5.28;4.78;;;20.80;70.80;;;;;;6207911;28;90420;-67
2023/04/02 01:27:43;;;;;;;5.10;4.60;;;20.80;70.80;;;;;;6201811;28;89092;-68
2023/04/02 01:30:52;;;;;;;5.20;4.57;;;20.80;70.90;;;;;;6206592;28;92139;-68
2023/04/02 01:33:54;;;;;;;5.50;4.50;;;20.80;70.90;;;;;;6193736;28;89092;-68
2023/04/02 01:37:16;;;;;;;5.38;4.68;;;20.80;70.90;;;;;;6191951;28;89138;-68
2023/04/02 01:40:33;;;;;;;5.18;4.68;;;20.80;70.90;;;;;;6203306;28;89450;-68
2023/04/02 01:43:43;;;;;;;5.43;4.40;;;20.80;70.90;;;;;;6199649;28;87681;-68
2023/04/02 01:46:48;;;;;;;5.38;4.78;;;20.80;70.90;;;;;;6210295;28;89466;-68
2023/04/02 01:49:55;;;;;;;5.03;4.35;;;20.80;70.90;;;;;;6195248;28;87876;-68
2023/04/02 01:53:00;;;;;;;6.18;4.40;;;20.80;70.90;;;;;;6198253;28;89476;-68
2023/04/02 01:56:03;;;;;;;4.95;4.40;;;20.80;70.90;;;;;;6191430;28;88913;-68
2023/04/02 01:59:06;;;;;;;5.30;4.70;;;20.80;71.90;;;;;;6207544;28;89033;-68
2023/04/02 02:02:12;;;;;;;5.40;4.82;;;20.80;71.00;;;;;;6195212;28;89194;-68
2023/04/02 02:05:16;;;;;;;5.68;5.07;;;20.80;70.90;;;;;;6208860;28;89015;-68
2023/04/02 02:08:34;;;;;;;5.68;4.85;;;20.80;70.90;;;;;;6208012;28;89358;-68
2023/04/02 02:11:36;;;;;;;8.30;5.45;;;20.80;71.00;;;;;;6196957;28;89406;-68
2023/04/02 02:14:38;;;;;;;5.80;5.13;;;20.70;70.90;;;;;;6196961;28;89301;-68
2023/04/02 02:17:41;;;;;;;4.88;4.47;;;20.80;71.00;;;;;;6196276;28;90547;-68
2023/04/02 02:20:44;;;;;;;6.38;5.18;;;20.80;71.00;;;;;;6204729;28;89045;-69
2023/04/02 02:23:46;;;;;;;6.20;4.90;;;20.70;71.00;;;;;;6207058;28;89445;-68
2023/04/02 02:26:54;;;;;;;7.07;5.13;;;20.70;71.00;;;;;;6188589;28;90453;-68
2023/04/02 02:30:00;;;;;;;6.03;5.00;;;20.80;71.00;;;;;;6188229;28;89167;-68
2023/04/02 02:33:08;;;;;;;5.82;5.13;;;20.80;71.00;;;;;;6202508;28;90408;-68
2023/04/02 02:36:16;;;;;;;8.68;5.10;;;20.80;71.00;;;;;;6195825;28;90274;-68
2023/04/02 02:39:24;;;;;;;6.30;5.60;;;20.70;70.90;;;;;;6184217;28;87934;-69
2023/04/02 02:42:31;;;;;;;5.78;5.25;;;20.80;71.00;;;;;;6193977;28;89397;-68
2023/04/02 02:45:37;;;;;;;5.68;5.03;;;20.70;71.00;;;;;;6206798;28;88163;-69
2023/04/02 02:48:43;;;;;;;6.00;5.40;;;20.70;71.10;;;;;;6199794;28;88277;-68
2023/04/02 02:51:48;;;;;;;5.80;5.25;;;20.70;71.00;;;;;;6195591;28;89293;-68
2023/04/02 02:54:54;;;;;;;6.13;5.53;;;20.70;71.10;;;;;;6188952;28;87941;-68
2023/04/02 02:58:02;;;;;;;7.72;5.78;;;20.70;71.10;;;;;;6187705;28;89983;-68
2023/04/02 03:01:04;;;;;;;5.50;5.00;;;20.70;71.10;;;;;;6195236;28;89230;-67
2023/04/02 03:04:07;;;;;;;7.38;5.90;;;20.70;71.10;;;;;;6197066;28;88019;-68
2023/04/02 03:07:09;;;;;;;8.07;6.40;;;20.70;71.10;;;;;;6205532;28;89334;-68
2023/04/02 03:10:17;;;;;;;5.88;5.32;;;20.70;71.10;;;;;;6204154;28;88265;-68
2023/04/02 03:13:24;;;;;;;6.88;5.93;;;20.70;71.10;;;;;;6182835;28;89074;-68
2023/04/02 03:16:32;;;;;;;7.35;5.90;;;20.70;71.10;;;;;;6193055;28;89171;-68
2023/04/02 03:19:40;;;;;;;6.15;5.60;;;20.70;71.10;;;;;;6202343;28;88394;-69
2023/04/02 03:22:49;;;;;;;6.07;5.47;;;20.70;71.10;;;;;;6199449;28;89094;-68
2023/04/02 03:25:56;;;;;;;5.97;5.28;;;20.70;71.10;;;;;;6197488;28;87000;-67
2023/04/02 03:29:02;;;;;;;6.70;5.45;;;20.70;71.10;;;;;;6188989;28;90931;-67
2023/04/02 03:32:12;;;;;;;6.43;5.50;;;20.70;71.10;;;;;;6186009;28;89079;-68
2023/04/02 03:35:22;;;;;;;6.57;5.78;;;20.70;70.90;;;;;;6196802;28;89105;-67
2023/04/02 03:38:28;;;;;;;6.20;5.60;;;20.70;70.90;;;;;;6186827;28;88270;-67
2023/04/02 03:41:37;;;;;;;7.93;6.25;;;20.70;70.80;;;;;;6192741;28;88939;-67
2023/04/02 03:44:47;;;;;;;7.25;6.22;;;20.70;71.70;;;;;;6203831;28;89568;-67
2023/04/02 03:47:54;;;;;;;7.72;6.05;;;20.70;70.90;;;;;;6182460;28;89233;-68
2023/04/02 03:51:02;;;;;;;6.50;5.82;;;20.70;70.80;;;;;;6202031;28;87317;-67
2023/04/02 03:54:04;;;;;;;6.30;5.57;;;20.80;70.80;;;;;;6191795;28;89020;-67
2023/04/02 03:57:18;;;;;;;6.50;5.80;;;20.80;70.80;;;;;;6206158;28;88941;-67
2023/04/02 04:00:25;;;;;;;6.28;5.68;;;20.80;70.80;;;;;;6192231;28;90472;-67
2023/04/02 04:03:37;;;;;;;6.18;5.57;;;20.80;70.70;;;;;;6201309;28;89093;-67
2023/04/02 04:06:45;;;;;;;7.45;6.13;;;20.80;70.80;;;;;;6205004;28;89438;-68
2023/04/02 04:09:50;;;;;;;6.63;5.97;;;20.80;70.70;;;;;;6203765;28;88021;-68
2023/04/02 04:12:55;;;;;;;6.88;5.88;;;20.80;70.80;;;;;;6193732;28;89030;-68
2023/04/02 04:16:02;;;;;;;5.90;5.30;;;20.80;70.80;;;;;;6195407;28;89026;-67
2023/04/02 04:19:11;;;;;;;6.22;5.32;;;20.80;70.70;;;;;;6191516;28;88801;-68
2023/04/02 04:22:18;;;;;;;5.75;5.25;;;20.80;70.80;;;;;;6194103;28;88013;-68
2023/04/02 04:25:28;;;;;;;6.93;5.20;;;20.90;70.90;;;;;;6201568;28;89051;-69
2023/04/02 04:28:37;;;;;;;6.07;5.47;;;20.90;70.90;;;;;;6185325;28;89547;-70
2023/04/02 04:31:45;;;;;;;6.47;5.15;;;21.00;70.90;;;;;;6184700;28;90008;-69
2023/04/02 04:34:52;;;;;;;7.03;5.85;;;21.00;70.90;;;;;;6194353;28;89875;-70
2023/04/02 04:37:59;;;;;;;5.80;5.20;;;21.00;70.80;;;;;;6206498;28;88946;-69
2023/04/02 04:41:05;;;;;;;5.85;5.35;;;21.00;70.80;;;;;;6192986;28;89567;-70
2023/04/02 04:44:16;;;;;;;5.90;5.28;;;21.00;70.70;;;;;;6206142;28;89068;-70
2023/04/02 04:47:20;;;;;;;6.00;5.40;;;21.00;70.80;;;;;;6197884;28;87639;-69
2023/04/02 04:50:31;;;;;;;6.35;5.75;;;21.00;70.70;;;;;;6199981;28;89091;-70
2023/04/02 04:53:45;;;;;;;6.03;5.32;;;21.00;70.70;;;;;;6192533;28;88409;-70
2023/04/02 04:56:51;;;;;;;6.10;5.50;;;21.00;70.70;;;;;;6203094;28;89070;-69
2023/04/02 04:59:58;;;;;;;6.60;5.32;;;21.00;70.70;;;;;;6184199;28;89150;-68
2023/04/02 05:03:08;;;;;;;6.57;5.63;;;21.10;70.70;;;;;;6200349;28;90011;-67
2023/04/02 05:06:15;;;;;;;6.90;5.25;;;21.10;70.60;;;;;;6204871;28;89151;-67
2023/04/02 05:09:27;;;;;;;6.32;5.60;;;21.10;70.50;;;;;;6214194;28;89298;-67
2023/04/02 05:12:36;;;;;;;6.53;5.80;;;21.10;70.50;;;;;;6195641;28;89433;-67
2023/04/02 05:15:43;;;;;;;6.85;6.15;;;21.20;70.60;;;;;;6193596;28;89024;-66
2023/04/02 05:18:50;;;;;;;6.97;5.72;;;21.10;70.60;;;;;;6194665;28;89222;-67
2023/04/02 05:21:57;;;;;;;7.93;5.70;;;21.10;70.60;;;;;;6188131;28;89343;-67
2023/04/02 05:25:14;;;;;;;6.38;5.68;;;21.10;70.60;;;;;;6195473;28;88341;-67
2023/04/02 05:28:19;;;;;;;6.00;5.28;;;21.10;70.70;;;;;;6200370;28;89049;-67
2023/04/02 05:31:25;;;;;;;7.57;5.60;;;21.10;70.60;;;;;;6191273;28;89261;-67
2023/04/02 05:34:32;;;;;;;6.03;5.43;;;21.20;70.70;;;;;;6191296;28;90017;-67
2023/04/02 05:37:34;;;;;;;7.30;5.90;;;21.20;70.70;;;;;;6197871;28;89402;-66
2023/04/02 05:40:42;;;;;;;7.32;6.05;;;21.20;70.90;;;;;;6200798;28;89162;-67
2023/04/02 05:43:48;;;;;;;7.47;5.93;;;21.20;70.60;;;;;;6204897;28;89083;-67
2023/04/02 05:46:54;;;;;;;6.93;5.95;;;21.20;70.60;;;;;;6204253;28;89358;-67
2023/04/02 05:50:17;;;;;;;6.68;5.97;;;21.20;70.50;;;;;;6204626;28;89365;-68
2023/04/02 05:53:25;;;;;;;7.38;6.30;;;21.20;70.50;;;;;;6187535;28;89631;-67
2023/04/02 05:56:32;;;;;;;7.20;6.25;;;21.20;70.50;;;;;;6186210;28;88387;-67
2023/04/02 05:59:38;;;;;;;6.55;5.80;;;21.20;70.50;;;;;;6197504;28;89032;-68
2023/04/02 06:02:43;;;;;;;6.95;5.90;;;21.20;70.50;;;;;;6199104;28;89164;-67
2023/04/02 06:05:46;;;;;;;6.53;5.80;;;21.20;70.50;;;;;;6184430;28;91250;-66
2023/04/02 06:08:54;;;;;;;6.78;6.07;;;21.20;70.60;;;;;;6195731;28;89066;-68
2023/04/02 06:12:08;;;;;;;7.35;6.07;;;21.30;70.50;;;;;;6207999;28;89057;-66
2023/04/02 06:15:13;;;;;;;6.30;5.70;;;21.30;70.50;;;;;;6194885;28;88827;-68
2023/04/02 06:18:18;;;;;;;7.63;6.25;;;21.30;70.50;;;;;;6208455;28;89311;-69
2023/04/02 06:21:21;;;;;;;7.05;6.07;;;21.30;70.70;;;;;;6195241;28;89400;-68
2023/04/02 06:24:27;;;;;;;7.05;6.32;;;21.30;70.60;;;;;;6197025;28;89099;-68
2023/04/02 06:27:31;;;;;;;7.00;6.30;;;21.30;70.60;;;;;;6195718;28;88536;-67
2023/04/02 06:30:36;;;;;;;7.00;6.30;;;21.30;70.60;;;;;;6196067;28;88389;-67
2023/04/02 06:33:39;;;;;;;6.88;6.18;;;21.30;70.50;;;;;;6195511;28;87963;-69
2023/04/02 06:36:41;;;;;;;8.77;6.53;;;21.30;70.60;;;;;;6191461;28;90045;-68
2023/04/02 06:39:43;;;;;;;6.95;6.25;;;21.40;70.80;;;;;;6191320;28;89271;-69
2023/04/02 06:42:48;;;;;;;7.80;6.60;;;21.40;70.80;;;;;;6192428;28;89142;-68
2023/04/02 06:45:54;;;;;;;8.13;6.75;;;21.30;70.70;;;;;;6194034;28;89092;-67
2023/04/02 06:49:03;;;;;;;8.98;6.38;;;21.40;70.90;;;;;;6194854;28;89516;-68
2023/04/02 06:52:13;;;;;;;7.88;6.35;;;21.40;70.90;;;;;;6197121;28;89712;-67
2023/04/02 06:55:30;;;;;;;8.63;6.93;;;21.40;70.90;;;;;;6208130;28;88285;-69
2023/04/02 06:58:33;;;;;;;7.50;6.28;;;21.40;70.90;;;;;;6196751;28;88411;-67
2023/04/02 07:01:40;;;;;;;6.72;6.03;;;21.40;70.90;;;;;;6203270;28;89105;-68
2023/04/02 07:04:42;;;;;;;7.40;6.22;;;21.40;71.00;;;;;;6199848;28;89047;-68
2023/04/02 07:07:44;;;;;;;7.65;6.38;;;21.40;71.00;;;;;;6193687;28;90393;-68
2023/04/02 07:10:46;;;;;;;6.80;6.10;;;21.40;70.90;;;;;;6206802;28;89009;-68
2023/04/02 07:13:50;;;;;;;6.97;6.25;;;21.40;71.00;;;;;;6206929;28;89120;-67
2023/04/02 07:16:53;;;;;;;7.25;6.47;;;21.40;71.00;;;;;;6201502;28;88537;-68
2023/04/02 07:19:55;;;;;;;7.03;6.32;;;21.40;71.00;;;;;;6186951;28;89169;-68
2023/04/02 07:22:57;;;;;;;8.23;6.20;;;21.40;71.00;;;;;;6187494;28;89312;-67
2023/04/02 07:26:00;;;;;;;9.15;6.68;;;21.40;71.00;;;;;;6205423;28;89160;-68
2023/04/02 07:29:07;;;;;;;9.45;6.53;;;21.40;71.00;;;;;;6196744;28;88561;-67
2023/04/02 07:32:09;;;;;;;8.02;6.90;;;21.50;71.10;;;;;;6207413;28;88307;-68
2023/04/02 07:35:12;;;;;;;7.05;6.32;;;21.40;71.10;;;;;;6199095;28;89152;-67
2023/04/02 07:38:14;;;;;;;7.95;6.13;;;21.40;71.00;;;;;;6206665;28;89783;-67
2023/04/02 07:41:18;;;;;;;8.90;6.82;;;21.50;71.10;;;;;;6207330;28;87983;-68
2023/04/02 07:44:21;;;;;;;7.13;6.38;;;21.50;71.10;;;;;;6194105;28;89213;-67
2023/04/02 07:47:24;;;;;;;6.35;5.68;;;21.50;71.10;;;;;;6203622;28;89067;-68
2023/04/02 07:50:27;;;;;;;7.82;6.05;;;21.50;71.10;;;;;;6191722;28;89585;-68
2023/04/02 07:53:31;;;;;;;8.60;6.50;;;21.50;71.10;;;;;;6199684;28;88741;-67
2023/04/02 07:56:33;;;;;;;7.93;6.70;;;21.50;71.10;;;;;;6201424;28;89417;-68
2023/04/02 07:59:36;;;;;;;7.57;6.38;;;21.50;71.10;;;;;;6203695;28;88269;-68
2023/04/02 08:02:38;;;;;;;6.35;5.75;;;21.50;71.10;;;;;;6206081;28;89443;-67
2023/04/02 08:05:40;;;;;;;7.75;5.95;;;21.50;71.10;;;;;;6203366;28;90439;-69
2023/04/02 08:08:42;;;;;;;6.93;6.22;;;21.50;71.10;;;;;;6194168;28;90087;-68
2023/04/02 08:11:45;;;;;;;6.80;6.10;;;21.50;71.20;;;;;;6185175;28;89075;-68
2023/04/02 08:14:48;;;;;;;7.05;5.95;;;21.50;71.10;;;;;;6192564;28;89534;-68
2023/04/02 08:17:50;;;;;;;6.88;6.18;;;21.50;71.10;;;;;;6206913;28;89147;-69
2023/04/02 08:20:53;;;;;;;6.57;5.82;;;21.50;71.10;;;;;;6209438;28;89003;-69
2023/04/02 08:23:55;;;;;;;6.63;5.93;;;21.50;71.10;;;;;;6196188;28;87990;-68
2023/04/02 08:26:57;;;;;;;6.82;5.88;;;21.50;71.20;;;;;;6196398;28;89003;-68
2023/04/02 08:30:00;;;;;;;7.13;6.40;;;21.50;71.10;;;;;;6190751;28;88315;-69
2023/04/02 08:33:02;;;;;;;6.50;5.78;;;21.60;71.20;;;;;;6197250;28;88419;-69
2023/04/02 08:36:05;;;;;;;6.22;5.63;;;21.60;71.10;;;;;;6203929;28;87977;-68
2023/04/02 08:39:11;;;;;;;6.90;6.20;;;21.60;71.10;;;;;;6192437;28;90030;-67
2023/04/02 08:42:23;;;;;;;7.43;6.00;;;21.60;71.20;;;;;;6203386;28;88892;-67
2023/04/02 08:45:36;;;;;;;7.07;6.35;;;21.60;71.10;;;;;;6183390;28;88940;-68
2023/04/02 08:48:41;;;;;;;7.00;6.30;;;21.60;71.10;;;;;;6204662;28;88357;-68
2023/04/02 08:51:46;;;;;;;7.93;6.57;;;21.60;71.10;;;;;;6204412;28;88034;-68
2023/04/02 08:54:48;;;;;;;6.78;6.10;;;21.60;71.10;;;;;;6181465;28;89126;-67
2023/04/02 08:57:59;;;;;;;6.95;6.10;;;21.60;71.20;;;;;;6194965;28;89075;-68
2023/04/02 09:01:05;;;;;;;6.30;5.70;;;21.60;71.20;;;;;;6205249;28;88306;-69
2023/04/02 09:04:15;;;;;;;7.80;6.00;;;21.60;71.30;;;;;;6197481;28;89207;-70
2023/04/02 09:07:17;;;;;;;7.68;6.30;;;21.60;71.20;;;;;;6214087;28;89152;-70
2023/04/02 09:10:20;;;;;;;7.93;6.35;;;21.60;71.10;;;;;;6193501;28;89837;-68
2023/04/02 09:13:25;;;;;;;7.57;6.47;;;21.60;71.30;;;;;;6195621;28;89455;-68
2023/04/02 09:16:43;;;;;;;8.25;6.40;;;21.60;71.30;;;;;;6203642;28;89503;-68
2023/04/02 09:19:53;;;;;;;8.15;6.68;;;21.60;71.30;;;;;;6191007;28;89383;-68
2023/04/02 09:22:57;;;;;;;6.75;6.05;;;21.60;71.30;;;;;;6194366;28;89366;-69
2023/04/02 09:25:59;;;;;;;7.07;6.22;;;21.60;71.30;;;;;;6205056;28;89100;-69
2023/04/02 09:29:16;;;;;;;7.30;6.35;;;21.60;71.30;;;;;;6194833;28;89629;-70
2023/04/02 09:32:45;;;;;;;7.18;6.20;;;21.60;71.30;;;;;;6197480;28;87641;-69
2023/04/02 09:35:57;;;;;;;6.78;6.00;;;21.60;71.30;;;;;;6198414;28;89159;-69
2023/04/02 09:39:05;;;;;;;6.78;6.05;;;21.60;71.40;;;;;;6197717;28;89095;-68
2023/04/02 09:42:08;;;;;;;7.40;6.60;;;21.60;71.30;;;;;;6196604;28;90472;-68
2023/04/02 09:45:15;;;;;;;6.93;6.22;;;21.70;71.40;;;;;;6192737;28;89010;-69
2023/04/02 09:48:29;;;;;;;6.53;5.90;;;21.60;71.30;;;;;;6189707;28;89416;-69
2023/04/02 09:51:33;;;;;;;6.95;6.05;;;21.60;71.60;;;;;;6208156;28;89124;-68
2023/04/02 09:54:40;;;;;;;6.55;5.85;;;21.70;71.80;;;;;;6208233;28;89251;-69
2023/04/02 09:57:43;;;;;;;9.27;6.45;;;21.60;71.80;;;;;;6199243;28;89248;-69
2023/04/02 10:00:50;;;;;;;7.53;6.60;;;21.70;71.80;;;;;;6196546;28;87919;-68
2023/04/02 10:04:43;;;;;;;9.27;7.28;;;21.70;71.80;;;;;;6198060;28;88352;-71
2023/04/02 10:07:47;;;;;;;7.97;6.55;;;21.70;71.80;;;;;;6200411;28;89068;-70
2023/04/02 10:10:52;;;;;;;7.75;6.95;;;21.70;71.90;;;;;;6191122;28;89008;-70
2023/04/02 10:13:57;;;;;;;7.90;6.40;;;21.70;71.90;;;;;;6193749;28;89303;-69
2023/04/02 10:17:06;;;;;;;7.63;6.55;;;21.70;71.70;;;;;;6203259;28;88083;-69
2023/04/02 10:20:19;;;;;;;7.60;6.05;;;21.70;71.50;;;;;;6193279;28;89084;-69
2023/04/02 10:23:25;;;;;;;7.35;5.57;;;21.70;71.20;;;;;;6194745;28;89447;-69
2023/04/02 10:26:54;;;;;;;7.93;5.88;;;21.70;71.00;;;;;;6207536;28;89147;-69
2023/04/02 10:30:09;;;;;;;6.75;5.30;;;21.70;70.80;;;;;;6194663;28;89046;-69
2023/04/02 10:33:18;;;;;;;9.02;5.60;;;21.70;70.80;;;;;;6195355;28;89620;-69
2023/04/02 10:36:34;;;;;;;10.02;4.97;;;21.70;70.90;;;;;;6201317;28;88206;-68
2023/04/02 10:39:41;;;;;;;7.68;5.30;;;21.70;71.10;;;;;;6193392;28;89133;-68
2023/04/02 10:42:49;;;;;;;8.48;4.97;;;21.70;71.80;;;;;;6202320;28;89488;-69
2023/04/02 10:45:57;;;;;;;10.25;4.90;;;21.70;71.60;;;;;;6202935;28;90070;-70
2023/04/02 10:49:09;;;;;;;8.93;4.60;;;21.70;71.90;;;;;;6194678;28;89720;-70
2023/04/02 10:52:20;;;;;;;7.15;4.43;;;21.70;72.00;;;;;;6202547;28;90008;-70
2023/04/02 10:55:25;;;;;;;7.00;4.40;;;21.70;72.00;;;;;;6191785;28;88996;-70
2023/04/02 10:58:30;;;;;;;6.55;4.28;;;21.70;72.00;;;;;;6185193;28;89239;-68
2023/04/02 11:01:34;;;;;;;9.65;4.93;;;21.70;72.00;;;;;;6205423;28;89100;-68
2023/04/02 11:04:45;;;;;;;7.72;4.63;;;21.70;72.20;;;;;;6194023;28;89266;-72
2023/04/02 11:07:59;;;;;;;8.90;4.40;;;21.70;72.20;;;;;;6183101;28;88317;-74
2023/04/02 11:11:06;;;;;;;8.25;4.80;;;21.70;72.70;;;;;;6187319;28;89035;-72
2023/04/02 11:14:15;;;;;;;10.10;4.90;;;21.70;72.70;;;;;;6195853;28;89120;-71
2023/04/02 11:17:20;;;;;;;8.48;4.60;;;21.70;72.70;;;;;;6198086;28;89991;-72
2023/04/02 11:20:43;;;;;;;6.80;4.70;;;21.70;72.90;;;;;;6200109;28;89037;-71
2023/04/02 11:23:59;;;;;;;10.15;4.60;;;21.70;72.80;;;;;;6193517;28;89290;-71
2023/04/02 11:27:22;;;;;;;9.20;5.05;;;21.70;73.20;;;;;;6205051;28;89240;-71
2023/04/02 11:30:27;;;;;;;7.65;4.68;;;21.70;73.40;;;;;;6183748;28;88067;-69
2023/04/02 11:33:42;;;;;;;7.20;4.43;;;21.70;73.30;;;;;;6203403;28;89323;-70
2023/04/02 11:37:03;;;;;;;6.57;4.50;;;21.70;73.30;;;;;;6186102;28;88011;-70
2023/04/02 11:40:45;;;;;;;7.93;4.57;;;21.70;73.50;;;;;;6194696;28;87941;-69
2023/04/02 11:43:59;;;;;;;8.10;4.53;;;21.80;73.60;;;;;;6196016;28;89753;-72
2023/04/02 11:47:21;;;;;;;7.30;4.22;;;21.70;73.50;;;;;;6192942;28;89089;-72
2023/04/02 11:50:31;;;;;;;5.80;4.35;;;21.80;73.40;;;;;;6200110;28;90182;-71
2023/04/02 11:53:34;;;;;;;7.47;4.72;;;21.80;73.20;;;;;;6198986;28;89250;-72
2023/04/02 11:56:45;;;;;;;6.43;4.53;;;21.80;73.10;;;;;;6199152;28;89143;-71
2023/04/02 12:00:01;;;;;;;8.82;4.50;;;21.80;73.10;;;;;;6199851;28;89171;-71
2023/04/02 12:03:31;;;;;;;6.97;4.00;;;21.80;72.80;;;;;;6205362;28;88026;-71
2023/04/02 12:06:53;;;;;;;4.47;3.85;;;21.80;72.80;;;;;;6185455;28;87070;-71
2023/04/02 12:09:59;;;;;;;5.15;4.28;;;21.80;72.70;;;;;;6205077;28;88024;-72
2023/04/02 12:13:03;;;;;;;4.85;4.10;;;21.80;72.60;;;;;;6205815;28;88667;-71
2023/04/02 12:16:06;;;;;;;6.32;4.28;;;21.80;72.60;;;;;;6206375;28;89294;-71
2023/04/02 12:19:09;;;;;;;5.22;4.07;;;21.80;72.50;;;;;;6195765;28;89102;-72
2023/04/02 12:22:18;;;;;;;5.18;4.10;;;21.80;72.40;;;;;;6184599;28;89985;-71
2023/04/02 12:25:28;;;;;;;5.45;4.00;;;21.80;72.40;;;;;;6204974;28;87986;-71
2023/04/02 12:28:32;;;;;;;4.65;3.70;;;21.80;72.30;;;;;;6192890;28;89126;-71
2023/04/02 12:31:35;;;;;;;5.72;3.95;;;21.80;72.30;;;;;;6197044;28;89572;-72
2023/04/02 12:34:44;;;;;;;3.97;3.58;;;21.90;72.30;;;;;;6199755;28;90271;-72
2023/04/02 12:37:53;;;;;;;4.60;3.88;;;21.80;72.20;;;;;;6194727;28;88999;-71
2023/04/02 12:40:56;;;;;;;4.85;3.80;;;21.80;72.30;;;;;;6193643;28;89154;-71
2023/04/02 12:44:01;;;;;;;4.10;3.70;;;21.80;72.10;;;;;;6193440;28;88346;-71
2023/04/02 12:47:05;;;;;;;5.18;3.90;;;21.90;72.10;;;;;;6183504;28;89364;-70
2023/04/02 12:50:15;;;;;;;5.15;3.92;;;21.80;72.00;;;;;;6203234;28;89254;-72
2023/04/02 12:53:21;;;;;;;5.57;3.92;;;21.90;72.00;;;;;;6192426;28;89799;-71
2023/04/02 12:56:24;;;;;;;5.68;3.85;;;21.80;71.90;;;;;;6192124;28;87018;-71
2023/04/02 12:59:35;;;;;;;5.50;3.83;;;21.90;72.00;;;;;;6192540;28;89240;-71
2023/04/02 13:02:44;;;;;;;4.35;3.42;;;21.80;71.80;;;;;;6216729;28;90054;-71
2023/04/02 13:05:50;;;;;;;4.60;3.83;;;21.90;72.00;;;;;;6205516;28;89504;-71
2023/04/02 13:08:54;;;;;;;5.55;3.97;;;21.90;71.90;;;;;;6200583;28;89186;-71
2023/04/02 13:11:56;;;;;;;4.43;3.70;;;21.90;71.80;;;;;;6206232;28;89196;-71
2023/04/02 13:15:03;;;;;;;4.30;3.90;;;21.80;71.80;;;;;;6207191;28;88912;-71
2023/04/02 13:18:18;;;;;;;4.65;3.85;;;21.80;71.80;;;;;;6187628;28;89462;-71
2023/04/02 13:21:27;;;;;;;4.38;3.70;;;21.80;71.80;;;;;;6205592;28;88268;-72
2023/04/02 13:24:31;;;;;;;4.00;3.60;;;21.80;71.80;;;;;;6200308;28;90164;-71
2023/04/02 13:27:33;;;;;;;4.53;3.40;;;21.90;71.80;;;;;;6208020;28;87180;-71
2023/04/02 13:30:37;;;;;;;3.45;3.15;;;21.80;71.80;;;;;;6186189;28;89106;-71
2023/04/02 13:33:39;;;;;;;4.15;3.50;;;21.80;71.60;;;;;;6191918;28;88028;-72
2023/04/02 13:36:41;;;;;;;4.10;3.05;;;21.90;71.60;;;;;;6206381;28;89294;-70
2023/04/02 13:39:43;;;;;;;4.90;3.67;;;21.90;71.60;;;;;;6197048;28;89111;-71
2023/04/02 13:42:48;;;;;;;4.57;3.75;;;21.90;71.60;;;;;;6196930;28;88966;-72
2023/04/02 13:45:54;;;;;;;3.33;3.03;;;21.90;71.60;;;;;;6197934;28;88709;-71
2023/04/02 13:48:57;;;;;;;3.95;3.55;;;21.90;71.60;;;;;;6210455;28;88622;-72
2023/04/02 13:52:01;;;;;;;4.32;3.35;;;21.90;71.50;;;;;;6208993;28;89092;-72
2023/04/02 13:55:04;;;;;;;4.25;3.58;;;21.90;71.50;;;;;;6208674;28;90012;-71
2023/04/02 13:58:07;;;;;;;4.30;3.55;;;21.80;71.50;;;;;;6200966;28;89157;-72
2023/04/02 14:01:10;;;;;;;3.53;3.20;;;21.90;71.50;;;;;;6208348;28;89315;-71
2023/04/02 14:04:17;;;;;;;3.38;3.05;;;21.80;71.50;;;;;;6206470;28;88786;-72
2023/04/02 14:07:39;;;;;;;4.05;3.15;;;21.90;71.50;;;;;;6205839;28;89389;-72
2023/04/02 14:11:03;;;;;;;3.38;3.00;;;21.90;71.50;;;;;;6201371;28;92685;-73
2023/04/02 14:14:26;;;;;;;3.70;3.30;;;21.90;71.40;;;;;;6198949;28;87976;-72
2023/04/02 14:17:37;;;;;;;3.65;2.97;;;21.90;71.30;;;;;;6192786;28;87282;-72
2023/04/02 14:20:46;;;;;;;3.50;3.20;;;21.90;71.40;;;;;;6206598;28;89059;-72
2023/04/02 14:24:05;;;;;;;3.50;3.20;;;21.90;71.30;;;;;;6194874;28;86994;-71
2023/04/02 14:27:22;;;;;;;3.38;3.08;;;21.90;71.30;;;;;;6182218;28;90063;-72
2023/04/02 14:30:33;;;;;;;3.50;3.20;;;21.90;71.30;;;;;;6185405;28;89334;-71
2023/04/02 14:33:45;;;;;;;3.13;2.80;;;21.90;71.30;;;;;;6201506;28;89042;-73
2023/04/02 14:36:57;;;;;;;4.18;3.13;;;21.90;71.30;;;;;;6202509;28;89012;-72
2023/04/02 14:40:09;;;;;;;4.28;3.03;;;21.80;71.30;;;;;;6205999;28;90484;-72
2023/04/02 14:43:16;;;;;;;3.05;2.75;;;21.90;71.40;;;;;;6195243;28;88346;-72
2023/04/02 14:46:18;;;;;;;3.30;3.00;;;21.80;71.30;;;;;;6194674;28;89126;-72
2023/04/02 14:49:28;;;;;;;4.28;3.13;;;21.80;71.30;;;;;;6206349;28;87082;-72
2023/04/02 14:52:35;;;;;;;3.22;2.90;;;21.80;71.30;;;;;;6184345;28;88454;-71
2023/04/02 14:55:42;;;;;;;3.20;2.90;;;21.80;71.30;;;;;;6200720;28;89179;-72
2023/04/02 14:58:50;;;;;;;2.88;2.67;;;21.80;71.30;;;;;;6189040;28;89953;-71
2023/04/02 15:01:57;;;;;;;2.85;2.58;;;21.80;72.20;;;;;;6205656;28;89085;-72
2023/04/02 15:05:05;;;;;;;3.20;2.80;;;21.80;71.30;;;;;;6212125;28;89258;-73
2023/04/02 15:08:18;;;;;;;3.67;3.20;;;21.70;71.30;;;;;;6192117;28;89174;-72
2023/04/02 15:11:26;;;;;;;3.60;2.80;;;21.80;71.40;;;;;;6202143;28;89048;-72
2023/04/02 15:14:33;;;;;;;2.95;2.70;;;21.80;71.40;;;;;;6193984;28;88864;-71
2023/04/02 15:17:36;;;;;;;3.30;3.00;;;21.80;71.40;;;;;;6196432;28;89347;-72
2023/04/02 15:20:48;;;;;;;2.90;2.70;;;21.70;71.30;;;;;;6205575;28;88381;-72
2023/04/02 15:24:01;;;;;;;2.95;2.65;;;21.80;71.40;;;;;;6182259;28;89390;-71
2023/04/02 15:27:15;;;;;;;3.47;2.90;;;21.80;71.30;;;;;;6183736;28;87327;-72
2023/04/02 15:30:23;;;;;;;3.05;2.75;;;21.80;71.30;;;;;;6195388;28;88980;-71
2023/04/02 15:33:42;;;;;;;3.88;3.47;;;21.80;71.30;;;;;;6187175;28;88222;-70
2023/04/02 15:37:05;;;;;;;4.50;4.10;;;21.80;71.40;;;;;;6196189;28;89262;-70
2023/04/02 15:40:38;;;;;;;3.80;3.42;;;21.80;72.30;;;;;;6195809;28;87998;-71
2023/04/02 15:43:44;;;;;;;3.30;3.00;;;21.90;72.70;;;;;;6181296;28;87151;-71
2023/04/02 15:46:55;;;;;;;3.95;3.45;;;21.90;72.00;;;;;;6181392;28;89441;-71
2023/04/02 15:50:03;;;;;;;3.40;3.05;;;21.80;72.00;;;;;;6184289;28;90117;-70
2023/04/02 15:53:22;;;;;;;3.53;3.08;;;21.90;72.20;;;;;;6194907;28;87250;-71
2023/04/02 15:56:33;;;;;;;3.28;2.92;;;21.80;72.20;;;;;;6205500;28;88032;-71
2023/04/02 16:00:09;;;;;;;3.88;3.28;;;21.90;72.30;;;;;;6183239;28;89091;-71
2023/04/02 16:03:41;;;;;;;3.28;2.90;;;21.90;72.30;;;;;;6186482;28;88967;-71
2023/04/02 16:07:00;;;;;;;3.60;2.97;;;21.90;72.30;;;;;;6193969;28;88874;-72
2023/04/02 16:10:14;;;;;;;4.35;3.20;;;21.90;72.30;;;;;;6183248;28;89586;-71
2023/04/02 16:13:24;;;;;;;8.00;4.20;;;21.90;72.30;;;;;;6192503;28;89123;-71
2023/04/02 16:16:32;;;;;;;3.78;2.97;;;21.90;72.30;;;;;;6202800;28;87460;-71
2023/04/02 16:19:38;;;;;;;3.72;2.92;;;21.90;72.30;;;;;;6182317;28;88302;-72